Time;durP1;ratioP1;P1;durP2;ratioP2;P2;SDS_P1;SDS_P2;PMS_P1;PMS_P2;Temp;Humidity;BMP_temperature;BMP_pressure;BME280_temperature;BME280_humidity;BME280_pressure;Samples;Min_cycle;Max_cycle;Signal;HPM_P1;HPM_P2
2022/08/18 00:01:41;;;;;;;6.70;6.00;;;;;;;-144.47;100.00;61586.06;5011427;28;20042;-79
2022/08/18 00:04:08;;;;;;;7.68;6.18;;;;;;;-144.47;100.00;61586.06;5010721;28;20028;-78
2022/08/18 00:06:33;;;;;;;7.65;5.78;;;;;;;-144.47;100.00;61586.06;5011278;28;20410;-78
2022/08/18 00:09:01;;;;;;;6.03;5.53;;;;;;;-144.47;100.00;61586.06;5010635;28;20025;-77
2022/08/18 00:11:30;;;;;;;7.55;5.45;;;;;;;-144.47;100.00;61586.06;5010959;28;20128;-77
2022/08/18 00:13:56;;;;;;;6.45;5.85;;;;;;;-144.47;100.00;61586.06;5011028;28;20454;-78
2022/08/18 00:16:21;;;;;;;7.05;5.53;;;;;;;-144.47;100.00;61586.06;5011171;28;20034;-77
2022/08/18 00:18:47;;;;;;;8.70;6.10;;;;;;;-144.47;100.00;61586.06;5011402;28;20026;-77
2022/08/18 00:21:13;;;;;;;6.40;5.80;;;;;;;-144.47;100.00;61586.06;5011611;28;20030;-76
2022/08/18 00:23:38;;;;;;;7.00;6.30;;;;;;;-144.47;100.00;61586.06;5011518;28;20088;-76
2022/08/18 00:26:04;;;;;;;8.82;6.43;;;;;;;-144.47;100.00;61586.06;5011105;28;20048;-76
2022/08/18 00:28:29;;;;;;;6.93;6.30;;;;;;;-144.47;100.00;61586.06;5012016;28;20081;-76
2022/08/18 00:30:55;;;;;;;8.85;7.13;;;;;;;-144.47;100.00;61586.06;5011233;28;20092;-76
2022/08/18 00:33:21;;;;;;;8.18;6.55;;;;;;;-144.47;100.00;61586.06;5011689;28;20026;-77
2022/08/18 00:35:47;;;;;;;7.28;6.38;;;;;;;-144.47;100.00;61586.06;5011923;28;20376;-76
2022/08/18 00:38:13;;;;;;;6.95;6.25;;;;;;;-144.47;100.00;61586.06;5011168;28;20152;-76
2022/08/18 00:40:47;;;;;;;8.15;6.25;;;;;;;-144.47;100.00;61586.06;5014235;28;20125;-77
2022/08/18 00:43:20;;;;;;;6.70;6.10;;;;;;;-144.47;100.00;61586.06;5012476;28;20091;-77
2022/08/18 00:45:45;;;;;;;7.55;6.85;;;;;;;-144.47;100.00;61586.06;5012762;28;20036;-76
2022/08/18 00:48:12;;;;;;;6.82;6.07;;;;;;;-144.47;100.00;61586.06;5014293;28;20117;-78
2022/08/18 00:50:43;;;;;;;7.90;6.72;;;;;;;-144.47;100.00;61586.06;5014519;28;20034;-78
2022/08/18 00:53:21;;;;;;;9.40;6.10;;;;;;;-144.47;100.00;61586.06;5014408;28;20121;-79
2022/08/18 00:55:49;;;;;;;7.30;6.20;;;;;;;-144.47;100.00;61586.06;5013985;28;20037;-78
2022/08/18 00:58:31;;;;;;;7.57;6.93;;;;;;;-144.47;100.00;61586.06;5014196;28;20038;-79
2022/08/18 01:00:59;;;;;;;10.40;6.32;;;;;;;-144.47;100.00;61586.06;5013540;28;20398;-79
2022/08/18 01:03:24;;;;;;;7.30;6.63;;;;;;;-144.47;100.00;61586.06;5014081;28;20037;-79
2022/08/18 01:06:05;;;;;;;6.95;6.25;;;;;;;-144.47;100.00;61586.06;5013836;28;20025;-79
2022/08/18 01:08:30;;;;;;;9.88;7.05;;;;;;;-144.47;100.00;61586.06;5014208;28;20026;-78
2022/08/18 01:11:00;;;;;;;7.20;6.47;;;;;;;-144.47;100.00;61586.06;5013271;28;20029;-79
2022/08/18 01:13:31;;;;;;;7.40;6.70;;;;;;;-144.47;100.00;61586.06;5014134;28;20355;-79
2022/08/18 01:15:57;;;;;;;9.55;7.30;;;;;;;-144.47;100.00;61586.06;5012838;28;21224;-79
2022/08/18 01:24:11;;;;;;;10.48;7.50;;;;;;;-144.47;100.00;61586.06;5012925;28;20045;-79
2022/08/18 01:26:49;;;;;;;7.68;6.97;;;;;;;-144.47;100.00;61586.06;5012516;28;20320;-79
2022/08/18 01:29:17;;;;;;;8.88;7.28;;;;;;;-144.47;100.00;61586.06;5010755;28;20386;-79
2022/08/18 01:31:55;;;;;;;7.40;6.70;;;;;;;-144.47;100.00;61586.06;5013383;28;20093;-78
2022/08/18 01:34:24;;;;;;;6.85;6.25;;;;;;;-144.47;100.00;61586.06;5013338;28;20390;-78
2022/08/18 01:36:52;;;;;;;7.70;6.20;;;;;;;-144.47;100.00;61586.06;5011151;28;20514;-78
2022/08/18 01:39:19;;;;;;;6.88;5.95;;;;;;;-144.47;100.00;61586.06;5013118;28;20034;-78
2022/08/18 01:41:44;;;;;;;6.55;5.95;;;;;;;-144.47;100.00;61586.06;5012552;28;20390;-78
2022/08/18 01:44:10;;;;;;;6.35;5.20;;;;;;;-144.47;100.00;61586.06;5012483;28;20029;-79
2022/08/18 01:46:40;;;;;;;7.30;4.82;;;;;;;-144.47;100.00;61586.06;5012603;28;20045;-79
2022/08/18 01:49:07;;;;;;;5.43;4.93;;;;;;;-144.47;100.00;61586.06;5009016;28;20050;-78
2022/08/18 01:51:33;;;;;;;7.40;4.72;;;;;;;-144.47;100.00;61586.06;5008000;28;20482;-78
2022/08/18 01:54:00;;;;;;;5.90;4.78;;;;;;;-144.47;100.00;61586.06;5012505;28;20038;-78
2022/08/18 01:56:27;;;;;;;7.63;4.60;;;;;;;-144.47;100.00;61586.06;5027170;28;20034;-78
2022/08/18 01:58:54;;;;;;;6.20;4.97;;;;;;;-144.47;100.00;61586.06;5012240;28;20033;-78
2022/08/18 02:01:22;;;;;;;7.30;5.40;;;;;;;-144.47;100.00;61586.06;5012350;28;20054;-79
2022/08/18 02:03:51;;;;;;;5.18;4.68;;;;;;;-144.47;100.00;61586.06;5012345;28;20029;-78
2022/08/18 02:06:18;;;;;;;9.20;5.63;;;;;;;-144.47;100.00;61586.06;5012792;28;20038;-78
2022/08/18 02:08:44;;;;;;;5.18;4.68;;;;;;;-144.47;100.00;61586.06;5012727;28;20504;-78
2022/08/18 02:11:11;;;;;;;8.10;5.55;;;;;;;-144.47;100.00;61586.06;5012235;28;20034;-78
2022/08/18 02:13:37;;;;;;;6.20;5.28;;;;;;;-144.47;100.00;61586.06;5012217;28;20390;-79
2022/08/18 02:16:03;;;;;;;6.18;5.28;;;;;;;-144.47;100.00;61586.06;5008953;28;20033;-78
2022/08/18 02:18:32;;;;;;;6.50;5.80;;;;;;;-144.47;100.00;61586.06;5012272;28;20125;-78
2022/08/18 02:21:12;;;;;;;6.55;5.13;;;;;;;-144.47;100.00;61586.06;5011934;28;20066;-78
2022/08/18 02:23:39;;;;;;;7.10;5.25;;;;;;;-144.47;100.00;61586.06;5009223;28;20029;-77
2022/08/18 02:26:07;;;;;;;6.50;5.20;;;;;;;-144.47;100.00;61586.06;5012232;28;20441;-78
2022/08/18 02:28:33;;;;;;;7.05;5.70;;;;;;;-144.47;100.00;61586.06;5012171;28;20038;-78
2022/08/18 02:31:28;;;;;;;5.88;5.22;;;;;;;-144.47;100.00;61586.06;5011255;28;20105;-78
2022/08/18 02:33:53;;;;;;;6.45;4.95;;;;;;;-144.47;100.00;61586.06;4997512;28;20044;-78
2022/08/18 02:36:20;;;;;;;6.35;4.72;;;;;;;-144.47;100.00;61586.06;5011816;28;20058;-78
2022/08/18 02:38:46;;;;;;;6.30;4.60;;;;;;;-144.47;100.00;61586.06;5012435;28;20478;-78
2022/08/18 02:41:13;;;;;;;6.15;4.95;;;;;;;-144.47;100.00;61586.06;5011841;28;20113;-78
2022/08/18 02:43:41;;;;;;;4.78;4.38;;;;;;;-144.47;100.00;61586.06;5012412;28;20097;-78
2022/08/18 02:46:07;;;;;;;6.07;5.50;;;;;;;-144.47;100.00;61586.06;5011375;28;20052;-78
2022/08/18 02:48:33;;;;;;;11.77;5.25;;;;;;;-144.47;100.00;61586.06;5010879;28;20068;-79
2022/08/18 02:51:12;;;;;;;5.70;5.20;;;;;;;-144.47;100.00;61586.06;5011676;28;20045;-78
2022/08/18 02:53:40;;;;;;;5.93;4.90;;;;;;;-144.47;100.00;61586.06;5008653;28;20080;-77
2022/08/18 02:56:30;;;;;;;6.20;5.70;;;;;;;-144.47;100.00;61586.06;5008036;28;20061;-75
2022/08/18 02:58:57;;;;;;;6.30;5.70;;;;;;;-144.47;100.00;61586.06;5011474;28;20042;-77
2022/08/18 03:01:27;;;;;;;6.15;5.55;;;;;;;-144.47;100.00;61586.06;5011392;28;20420;-78
2022/08/18 03:03:54;;;;;;;6.50;5.70;;;;;;;-144.47;100.00;61586.06;5009298;28;20033;-77
2022/08/18 03:06:22;;;;;;;5.97;5.43;;;;;;;-144.47;100.00;61586.06;5012119;28;20409;-77
2022/08/18 03:08:49;;;;;;;6.18;5.68;;;;;;;-144.47;100.00;61586.06;5012827;28;20378;-78
2022/08/18 03:11:16;;;;;;;6.90;6.30;;;;;;;-144.47;100.00;61586.06;5012490;28;20474;-78
2022/08/18 03:13:42;;;;;;;6.65;5.85;;;;;;;-144.47;100.00;61586.06;5012735;28;20038;-77
2022/08/18 03:16:08;;;;;;;7.55;5.95;;;;;;;-144.47;100.00;61586.06;5011671;28;20041;-75
2022/08/18 03:18:34;;;;;;;7.05;5.43;;;;;;;-144.47;100.00;61586.06;5012527;28;20412;-78
2022/08/18 03:21:15;;;;;;;7.75;6.40;;;;;;;-144.47;100.00;61586.06;5011483;28;20062;-78
2022/08/18 03:23:41;;;;;;;7.70;5.95;;;;;;;-144.47;100.00;61586.06;5010668;28;20030;-77
2022/08/18 03:26:12;;;;;;;6.72;6.03;;;;;;;-144.47;100.00;61586.06;5012031;28;20068;-77
2022/08/18 03:28:41;;;;;;;7.20;5.80;;;;;;;-144.47;100.00;61586.06;5011258;28;20387;-77
2022/08/18 03:31:07;;;;;;;6.95;5.72;;;;;;;-144.47;100.00;61586.06;5010790;28;20394;-78
2022/08/18 03:33:34;;;;;;;6.55;5.97;;;;;;;-144.47;100.00;61586.06;5012140;28;20026;-78
2022/08/18 03:36:05;;;;;;;6.35;5.70;;;;;;;-144.47;100.00;61586.06;5011961;28;20370;-77
2022/08/18 03:38:30;;;;;;;6.30;5.45;;;;;;;-144.47;100.00;61586.06;5012455;28;20030;-77
2022/08/18 03:40:56;;;;;;;6.65;6.00;;;;;;;-144.47;100.00;61586.06;5011874;28;20026;-78
2022/08/18 03:43:22;;;;;;;5.70;5.20;;;;;;;-144.47;100.00;61586.06;5012418;28;20065;-78
2022/08/18 03:45:47;;;;;;;6.13;5.63;;;;;;;-144.47;100.00;61586.06;5011941;28;20026;-78
2022/08/18 03:48:13;;;;;;;6.13;5.60;;;;;;;-144.47;100.00;61586.06;5011222;28;20125;-77
2022/08/18 03:50:39;;;;;;;6.22;5.72;;;;;;;-144.47;100.00;61586.06;5011972;28;20432;-77
2022/08/18 03:53:04;;;;;;;6.63;5.95;;;;;;;-144.47;100.00;61586.06;5010284;28;20042;-77
2022/08/18 03:55:31;;;;;;;6.70;6.10;;;;;;;-144.47;100.00;61586.06;5011863;28;20433;-77
2022/08/18 03:58:01;;;;;;;6.45;5.85;;;;;;;-144.47;100.00;61586.06;5011569;28;20050;-77
2022/08/18 04:00:32;;;;;;;7.07;6.32;;;;;;;-144.47;100.00;61586.06;5011599;28;20390;-78
2022/08/18 04:03:00;;;;;;;;;;;;;;;-144.47;100.00;61586.06;5011901;28;20549;-78
2022/08/18 04:05:27;;;;;;;7.20;6.50;;;;;;;-144.47;100.00;61586.06;5011520;28;19918;-77
2022/08/18 04:07:54;;;;;;;8.20;6.75;;;;;;;-144.47;100.00;61586.06;5011125;28;20040;-78
2022/08/18 04:10:20;;;;;;;6.72;6.22;;;;;;;-144.47;100.00;61586.06;5011519;28;20470;-76
2022/08/18 04:12:45;;;;;;;8.77;6.72;;;;;;;-144.47;100.00;61586.06;5011511;28;20097;-77
2022/08/18 04:15:11;;;;;;;7.18;6.15;;;;;;;-144.47;100.00;61586.06;5013969;28;20125;-77
2022/08/18 04:17:36;;;;;;;7.45;6.85;;;;;;;-144.47;100.00;61586.06;5016123;28;20048;-78
2022/08/18 04:20:03;;;;;;;8.35;6.53;;;;;;;-144.47;100.00;61586.06;5014862;28;20421;-78
2022/08/18 04:22:32;;;;;;;9.43;6.07;;;;;;;-144.47;100.00;61586.06;5015645;28;20238;-78
2022/08/18 04:24:59;;;;;;;7.10;6.07;;;;;;;-144.47;100.00;61586.06;5015300;28;20532;-77
2022/08/18 04:27:26;;;;;;;6.80;6.20;;;;;;;-144.47;100.00;61586.06;5014936;28;20045;-77
2022/08/18 04:29:55;;;;;;;6.28;5.70;;;;;;;-144.47;100.00;61586.06;5013825;28;20034;-78
2022/08/18 04:32:22;;;;;;;6.93;6.28;;;;;;;-144.47;100.00;61586.06;5014748;28;20441;-77
2022/08/18 04:34:48;;;;;;;7.10;5.82;;;;;;;-144.47;100.00;61586.06;5015167;28;20457;-78
2022/08/18 04:37:15;;;;;;;7.28;6.50;;;;;;;-144.47;100.00;61586.06;5015422;28;20041;-77
2022/08/18 04:39:41;;;;;;;8.88;5.85;;;;;;;-144.47;100.00;61586.06;5015956;28;20501;-78
2022/08/18 04:42:07;;;;;;;6.45;5.88;;;;;;;-144.47;100.00;61586.06;5015271;28;20493;-78
2022/08/18 04:44:36;;;;;;;7.80;5.60;;;;;;;-144.47;100.00;61586.06;5021068;28;20029;-78
2022/08/18 04:47:01;;;;;;;6.78;6.07;;;;;;;-144.47;100.00;61586.06;5014978;28;20152;-77
2022/08/18 04:49:27;;;;;;;7.10;6.15;;;;;;;-144.47;100.00;61586.06;5015201;28;20121;-77
2022/08/18 04:54:39;;;;;;;7.05;6.10;;;;;;;-144.47;100.00;61586.06;5015608;28;20441;-78
2022/08/18 04:57:16;;;;;;;5.70;5.25;;;;;;;-144.47;100.00;61586.06;5015017;28;20081;-77
2022/08/18 04:59:44;;;;;;;6.32;5.78;;;;;;;-144.47;100.00;61586.06;5012693;28;20397;-78
2022/08/18 05:02:11;;;;;;;6.18;5.68;;;;;;;-144.47;100.00;61586.06;5014561;28;20045;-78
2022/08/18 05:04:40;;;;;;;6.18;5.63;;;;;;;-144.47;100.00;61586.06;5015064;28;20109;-78
2022/08/18 05:07:09;;;;;;;6.93;6.22;;;;;;;-144.47;100.00;61586.06;5014621;28;20046;-77
2022/08/18 05:09:35;;;;;;;6.55;5.80;;;;;;;-144.47;100.00;61586.06;5029316;28;20034;-78
2022/08/18 05:12:03;;;;;;;10.30;6.30;;;;;;;-144.47;100.00;61586.06;5014058;28;20045;-78
2022/08/18 05:14:30;;;;;;;7.13;6.32;;;;;;;-144.47;100.00;61586.06;5014320;28;20124;-78
2022/08/18 05:17:00;;;;;;;6.68;6.13;;;;;;;-144.47;100.00;61586.06;5013917;28;20092;-78
2022/08/18 05:19:26;;;;;;;7.45;5.95;;;;;;;-144.47;100.00;61586.06;5014261;28;20137;-78
2022/08/18 05:21:56;;;;;;;6.20;5.35;;;;;;;-144.47;100.00;61586.06;5013516;28;20030;-78
2022/08/18 05:24:23;;;;;;;8.98;5.35;;;;;;;-144.47;100.00;61586.06;5013941;28;20036;-78
2022/08/18 05:26:52;;;;;;;7.53;5.53;;;;;;;-144.47;100.00;61586.06;5013545;28;20029;-77
2022/08/18 05:29:21;;;;;;;5.85;5.35;;;;;;;-144.47;100.00;61586.06;5014034;28;20037;-78
2022/08/18 05:31:49;;;;;;;7.07;5.60;;;;;;;-144.47;100.00;61586.06;5013713;28;20041;-78
2022/08/18 05:34:16;;;;;;;10.23;5.85;;;;;;;-144.47;100.00;61586.06;5011911;28;20324;-78
2022/08/18 05:36:49;;;;;;;7.00;6.15;;;;;;;-144.47;100.00;61586.06;5013393;28;20042;-78
2022/08/18 05:39:22;;;;;;;7.78;6.28;;;;;;;-144.47;100.00;61586.06;5013620;28;20059;-78
2022/08/18 05:41:55;;;;;;;8.20;5.97;;;;;;;-144.47;100.00;61586.06;5013516;28;20037;-78
2022/08/18 05:44:26;;;;;;;8.60;6.65;;;;;;;-144.47;100.00;61586.06;5013887;28;20036;-78
2022/08/18 05:46:51;;;;;;;;;;;;;;;-144.47;100.00;61586.06;5013746;28;20022;-78
2022/08/18 05:49:18;;;;;;;6.78;6.28;;;;;;;-144.47;100.00;61586.06;5013532;28;19932;-78
2022/08/18 05:51:50;;;;;;;7.10;6.18;;;;;;;-144.47;100.00;61586.06;5013679;28;20153;-78
2022/08/18 05:57:06;;;;;;;8.15;6.65;;;;;;;-144.47;100.00;61586.06;5012630;28;20034;-77
2022/08/18 05:59:36;;;;;;;7.80;6.72;;;;;;;-144.47;100.00;61586.06;5013524;28;20148;-78
2022/08/18 06:02:20;;;;;;;7.10;6.38;;;;;;;-144.47;100.00;61586.06;5012906;28;20037;-78
2022/08/18 06:04:48;;;;;;;8.32;6.40;;;;;;;-144.47;100.00;61586.06;5011615;28;20079;-77
2022/08/18 06:07:30;;;;;;;9.77;6.70;;;;;;;-144.47;100.00;61586.06;5013155;28;20037;-77
2022/08/18 06:09:56;;;;;;;6.95;6.35;;;;;;;-144.47;100.00;61586.06;5011934;28;20068;-78
2022/08/18 06:12:34;;;;;;;8.82;6.40;;;;;;;-144.47;100.00;61586.06;5013001;28;20105;-78
2022/08/18 06:15:06;;;;;;;8.18;6.32;;;;;;;-144.47;100.00;61586.06;5012383;28;20117;-78
2022/08/18 06:17:43;;;;;;;10.35;7.22;;;;;;;-144.47;100.00;61586.06;5012945;28;20030;-77
2022/08/18 06:20:20;;;;;;;7.13;6.43;;;;;;;-144.47;100.00;61586.06;5009438;28;20153;-77
2022/08/18 06:23:06;;;;;;;7.03;6.05;;;;;;;-144.47;100.00;61586.06;5013063;28;20105;-76
2022/08/18 06:26:19;;;;;;;7.97;7.10;;;;;;;-144.47;100.00;61586.06;5012561;28;20107;-77
2022/08/18 06:29:08;;;;;;;7.60;6.88;;;;;;;-144.47;100.00;61586.06;4991011;28;20035;-77
2022/08/18 06:31:43;;;;;;;7.82;6.88;;;;;;;-144.47;100.00;61586.06;4988374;28;20134;-78
2022/08/18 06:34:39;;;;;;;9.60;7.97;;;;;;;-144.47;100.00;61586.06;4990563;28;20086;-78
2022/08/18 06:37:26;;;;;;;7.90;6.85;;;;;;;-144.47;100.00;61586.06;4982398;28;20053;-78
2022/08/18 06:39:52;;;;;;;8.10;7.35;;;;;;;-144.47;100.00;61586.06;4990446;28;20046;-78
2022/08/18 06:42:20;;;;;;;9.38;8.05;;;;;;;-144.47;100.00;61586.06;4990686;28;20084;-77
2022/08/18 06:44:50;;;;;;;11.38;8.18;;;;;;;-144.47;100.00;61586.06;4990948;28;20030;-76
2022/08/18 06:47:41;;;;;;;10.75;8.68;;;;;;;-144.47;100.00;61586.06;4990753;28;20074;-77
2022/08/18 06:50:14;;;;;;;8.20;7.30;;;;;;;-144.47;100.00;61586.06;4988516;28;20129;-78
2022/08/18 06:53:01;;;;;;;9.45;8.55;;;;;;;-144.47;100.00;61586.06;4987916;28;20038;-76
2022/08/18 06:55:48;;;;;;;9.68;8.50;;;;;;;-144.47;100.00;61586.06;4990400;28;20038;-77
2022/08/18 06:58:16;;;;;;;12.70;10.27;;;;;;;-144.47;100.00;61586.06;4991128;28;20081;-77
2022/08/18 07:00:51;;;;;;;11.00;9.02;;;;;;;-144.47;100.00;61586.06;5012131;28;20092;-77
2022/08/18 07:03:19;;;;;;;9.70;8.80;;;;;;;-144.47;100.00;61586.06;5025130;28;20509;-78
2022/08/18 07:06:03;;;;;;;11.25;10.23;;;;;;;-144.47;100.00;61586.06;5012385;28;20028;-77
2022/08/18 07:08:43;;;;;;;10.80;9.73;;;;;;;-144.47;100.00;61586.06;5012487;28;20049;-77
2022/08/18 07:11:31;;;;;;;11.75;10.55;;;;;;;-144.47;100.00;61586.06;5010256;28;20049;-78
2022/08/18 07:14:20;;;;;;;12.50;10.13;;;;;;;-144.47;100.00;61586.06;5010976;28;20037;-78
2022/08/18 07:16:46;;;;;;;11.02;9.90;;;;;;;-144.47;100.00;61586.06;5009619;28;20073;-75
2022/08/18 07:19:19;;;;;;;10.30;9.30;;;;;;;-144.47;100.00;61586.06;5011687;28;20046;-78
2022/08/18 07:21:59;;;;;;;12.10;10.95;;;;;;;-144.47;100.00;61586.06;5012301;28;20034;-78
2022/08/18 07:24:28;;;;;;;12.23;11.03;;;;;;;-144.47;100.00;61586.06;5012224;28;20066;-78
2022/08/18 07:27:08;;;;;;;11.50;10.40;;;;;;;-144.47;100.00;61586.06;5011498;28;20030;-78
2022/08/18 07:29:38;;;;;;;12.37;9.17;;;;;;;-144.47;100.00;61586.06;5008915;28;20030;-78
2022/08/18 07:32:14;;;;;;;10.18;9.02;;;;;;;-144.47;100.00;61586.06;5007611;28;20312;-79
2022/08/18 07:34:46;;;;;;;11.15;9.13;;;;;;;-144.47;100.00;61586.06;5011965;28;20104;-78
2022/08/18 07:37:21;;;;;;;10.98;9.38;;;;;;;-144.47;100.00;61586.06;5011584;28;20391;-79
2022/08/18 07:39:57;;;;;;;12.55;8.98;;;;;;;-144.47;100.00;61586.06;5011796;28;20556;-78
2022/08/18 07:42:46;;;;;;;8.93;8.13;;;;;;;-144.47;100.00;61586.06;5011531;28;20489;-78
2022/08/18 07:45:21;;;;;;;11.23;8.90;;;;;;;-144.47;100.00;61586.06;5011393;28;20064;-78
2022/08/18 07:48:11;;;;;;;9.23;8.05;;;;;;;-144.47;100.00;61586.06;5011455;28;20088;-76
2022/08/18 07:51:23;;;;;;;14.85;9.00;;;;;;;-144.47;100.00;61586.06;5014197;28;20057;-78
2022/08/18 07:54:00;;;;;;;11.50;8.68;;;;;;;-144.47;100.00;61586.06;5013506;28;20050;-77
2022/08/18 07:56:38;;;;;;;9.85;8.80;;;;;;;-144.47;100.00;61586.06;5015907;28;20041;-77
2022/08/18 07:59:11;;;;;;;12.20;9.52;;;;;;;-144.47;100.00;61586.06;5012450;28;20512;-78
2022/08/18 08:01:50;;;;;;;9.40;8.43;;;;;;;-144.47;100.00;61586.06;5015565;28;20466;-78
2022/08/18 08:04:41;;;;;;;10.05;8.60;;;;;;;-144.47;100.00;61586.06;5015939;28;20041;-77
2022/08/18 08:07:30;;;;;;;10.48;9.57;;;;;;;-144.47;100.00;61586.06;5015046;28;20046;-78
2022/08/18 08:10:02;;;;;;;9.70;8.75;;;;;;;-144.47;100.00;61586.06;5014415;28;20042;-77
2022/08/18 08:12:42;;;;;;;12.82;9.27;;;;;;;-144.47;100.00;61586.06;5015544;28;20519;-77
2022/08/18 08:15:23;;;;;;;10.25;8.50;;;;;;;-144.47;100.00;61586.06;5013089;28;20064;-77
2022/08/18 08:17:57;;;;;;;10.40;9.38;;;;;;;-144.47;100.00;61586.06;5014495;28;20041;-76
2022/08/18 08:20:32;;;;;;;12.40;9.43;;;;;;;-144.47;100.00;61586.06;5013987;28;20045;-78
2022/08/18 08:23:01;;;;;;;10.63;8.85;;;;;;;-144.47;100.00;61586.06;5015121;28;20041;-78
2022/08/18 08:26:11;;;;;;;10.32;8.38;;;;;;;-144.47;100.00;61586.06;5015351;28;20125;-77
2022/08/18 08:29:14;;;;;;;10.48;9.05;;;;;;;-144.47;100.00;61586.06;4949805;28;20038;-78
2022/08/18 08:31:41;;;;;;;10.02;8.75;;;;;;;-144.47;100.00;61586.06;5014655;28;20478;-78
2022/08/18 08:34:19;;;;;;;12.52;9.55;;;;;;;-144.47;100.00;61586.06;5014738;28;20260;-78
2022/08/18 08:36:46;;;;;;;9.98;8.98;;;;;;;-144.47;100.00;61586.06;5014790;28;20042;-78
2022/08/18 08:39:24;;;;;;;9.15;8.20;;;;;;;-144.47;100.00;61586.06;5012216;28;20497;-78
2022/08/18 08:42:00;;;;;;;14.52;9.02;;;;;;;-144.47;100.00;61586.06;5012111;28;20073;-77
2022/08/18 08:44:35;;;;;;;10.48;8.63;;;;;;;-144.47;100.00;61586.06;5014874;28;20038;-78
2022/08/18 08:47:14;;;;;;;8.98;8.00;;;;;;;-144.47;100.00;61586.06;5013792;28;20164;-78
2022/08/18 08:50:17;;;;;;;9.05;6.85;;;;;;;-144.47;100.00;61586.06;5009011;28;20038;-78
2022/08/18 08:53:32;;;;;;;8.30;6.75;;;;;;;-144.47;100.00;61586.06;4993370;28;20114;-78
2022/08/18 08:56:07;;;;;;;8.68;7.70;;;;;;;-144.47;100.00;61586.06;4956523;28;20102;-78
2022/08/18 08:58:39;;;;;;;9.48;8.15;;;;;;;-144.47;100.00;61586.06;5000427;28;20525;-78
2022/08/18 09:01:13;;;;;;;14.93;9.00;;;;;;;-144.47;100.00;61586.06;4992910;28;20088;-78
2022/08/18 09:03:51;;;;;;;11.38;9.13;;;;;;;-144.47;100.00;61586.06;4992266;28;20048;-78
2022/08/18 09:06:25;;;;;;;13.07;8.65;;;;;;;-144.47;100.00;61586.06;4999984;28;20499;-78
2022/08/18 09:09:29;;;;;;;11.57;8.75;;;;;;;-144.47;100.00;61586.06;4998036;28;20486;-78
2022/08/18 09:12:15;;;;;;;13.63;8.93;;;;;;;-144.47;100.00;61586.06;4949146;29;20031;-78
2022/08/18 09:14:46;;;;;;;9.38;8.50;;;;;;;-144.47;100.00;61586.06;4954414;29;20559;-78
2022/08/18 09:17:39;;;;;;;8.93;8.13;;;;;;;-144.47;100.00;61586.06;4949266;29;20383;-78
2022/08/18 09:20:32;;;;;;;12.77;9.15;;;;;;;-144.47;100.00;61586.06;4951907;29;20047;-78
2022/08/18 09:23:03;;;;;;;9.63;8.77;;;;;;;-144.47;100.00;61586.06;4955380;28;20411;-78
2022/08/18 09:25:32;;;;;;;10.95;8.50;;;;;;;-144.47;100.00;61586.06;4951615;28;20047;-78
2022/08/18 09:28:21;;;;;;;9.77;8.27;;;;;;;-144.47;100.00;61586.06;4991538;28;20414;-78
2022/08/18 09:30:54;;;;;;;13.40;8.20;;;;;;;-144.47;100.00;61586.06;4991947;28;20177;-77
2022/08/18 09:33:19;;;;;;;12.90;8.40;;;;;;;-144.47;100.00;61586.06;4991734;28;20101;-76
2022/08/18 09:36:13;;;;;;;10.70;8.38;;;;;;;-144.47;100.00;61586.06;4988166;28;20046;-76
2022/08/18 09:41:44;;;;;;;9.75;7.13;;;;;;;-144.47;100.00;61586.06;4992757;28;20422;-76
2022/08/18 09:44:13;;;;;;;9.07;6.53;;;;;;;-144.47;100.00;61586.06;5013774;28;20037;-78
2022/08/18 09:46:42;;;;;;;8.25;6.75;;;;;;;-144.47;100.00;61586.06;5013790;28;20433;-77
2022/08/18 09:49:25;;;;;;;11.82;6.07;;;;;;;-144.47;100.00;61586.06;5013364;28;20037;-77
2022/08/18 09:52:19;;;;;;;6.88;6.00;;;;;;;-144.47;100.00;61586.06;5012016;28;20429;-77
2022/08/18 09:54:57;;;;;;;6.45;5.78;;;;;;;-144.47;100.00;61586.06;5011308;28;20472;-77
2022/08/18 09:57:28;;;;;;;8.18;5.50;;;;;;;-144.47;100.00;61586.06;5014051;28;20090;-77
2022/08/18 09:59:58;;;;;;;8.20;5.72;;;;;;;-144.47;100.00;61586.06;5013594;28;20040;-77
2022/08/18 10:02:46;;;;;;;9.53;6.20;;;;;;;-144.47;100.00;61586.06;5013216;28;20124;-77
2022/08/18 10:05:18;;;;;;;10.43;5.20;;;;;;;-144.47;100.00;61586.06;5006559;28;20050;-77
2022/08/18 10:07:57;;;;;;;6.30;5.22;;;;;;;-144.47;100.00;61586.06;5013494;28;20393;-76
2022/08/18 10:10:38;;;;;;;6.00;5.38;;;;;;;-144.47;100.00;61586.06;5011983;28;20040;-76
2022/08/18 10:13:21;;;;;;;6.13;4.65;;;;;;;-144.47;100.00;61586.06;5012214;28;20401;-77
2022/08/18 10:16:18;;;;;;;6.53;4.75;;;;;;;-144.47;100.00;61586.06;5012785;28;20327;-77
2022/08/18 10:19:28;;;;;;;5.53;4.65;;;;;;;-144.47;100.00;61586.06;5010560;28;20037;-76
2022/08/18 10:21:57;;;;;;;5.90;5.15;;;;;;;-144.47;100.00;61586.06;5011997;28;20370;-78
2022/08/18 10:24:34;;;;;;;5.60;5.07;;;;;;;-144.47;100.00;61586.06;5013595;28;20215;-78
2022/08/18 10:27:02;;;;;;;8.15;5.80;;;;;;;-144.47;100.00;61586.06;5013122;28;20378;-77
2022/08/18 10:29:28;;;;;;;7.57;5.90;;;;;;;-144.47;100.00;61586.06;5013349;28;20128;-77
2022/08/18 10:31:56;;;;;;;9.27;6.30;;;;;;;-144.47;100.00;61586.06;5012840;28;20134;-77
2022/08/18 10:34:43;;;;;;;6.60;5.90;;;;;;;-144.47;100.00;61586.06;5013182;28;20540;-77
2022/08/18 10:37:31;;;;;;;8.45;6.38;;;;;;;-144.47;100.00;61586.06;5011843;28;20184;-77
2022/08/18 10:39:59;;;;;;;7.63;5.75;;;;;;;-144.47;100.00;61586.06;5011952;28;20112;-77
2022/08/18 10:42:32;;;;;;;8.70;6.28;;;;;;;-144.47;100.00;61586.06;5012930;28;20378;-78
2022/08/18 10:45:25;;;;;;;7.95;6.28;;;;;;;-144.47;100.00;61586.06;5012852;28;20041;-78
2022/08/18 10:48:03;;;;;;;7.25;6.05;;;;;;;-144.47;100.00;61586.06;5012117;28;20038;-77
2022/08/18 10:50:42;;;;;;;8.10;5.93;;;;;;;-144.47;100.00;61586.06;5012031;28;20037;-78
2022/08/18 10:53:17;;;;;;;7.77;5.60;;;;;;;-144.47;100.00;61586.06;5012895;28;20346;-77
2022/08/18 10:55:59;;;;;;;6.43;5.72;;;;;;;-144.47;100.00;61586.06;5011091;28;20386;-78
2022/08/18 10:58:49;;;;;;;8.10;6.38;;;;;;;-144.47;100.00;61586.06;5013299;28;20446;-77
2022/08/18 11:01:24;;;;;;;6.97;5.40;;;;;;;-144.47;100.00;61586.06;5010138;28;20041;-78
2022/08/18 11:04:01;;;;;;;8.43;5.90;;;;;;;-144.47;100.00;61586.06;5012520;28;20049;-77
2022/08/18 11:06:28;;;;;;;8.45;6.28;;;;;;;-144.47;100.00;61586.06;5012934;28;20412;-78
2022/08/18 11:08:59;;;;;;;6.18;5.72;;;;;;;-144.47;100.00;61586.06;5012248;28;20049;-78
2022/08/18 11:11:32;;;;;;;8.73;5.85;;;;;;;-144.47;100.00;61586.06;5012721;28;20377;-78
2022/08/18 11:14:00;;;;;;;6.22;5.57;;;;;;;-144.47;100.00;61586.06;5012337;28;20038;-78
2022/08/18 11:16:38;;;;;;;7.78;6.35;;;;;;;-144.47;100.00;61586.06;5012404;28;20065;-77
2022/08/18 11:19:11;;;;;;;6.50;5.15;;;;;;;-144.47;100.00;61586.06;5012157;28;20038;-78
2022/08/18 11:21:38;;;;;;;6.65;5.05;;;;;;;-144.47;100.00;61586.06;5012557;28;20033;-78
2022/08/18 11:24:07;;;;;;;5.97;4.45;;;;;;;-144.47;100.00;61586.06;5011895;28;20026;-78
2022/08/18 11:26:38;;;;;;;9.43;5.45;;;;;;;-144.47;100.00;61586.06;5014588;28;20026;-77
2022/08/18 11:29:27;;;;;;;6.75;5.45;;;;;;;-144.47;100.00;61586.06;5012599;28;20413;-78
2022/08/18 11:31:56;;;;;;;6.53;4.78;;;;;;;-144.47;100.00;61586.06;5012175;28;20426;-78
2022/08/18 11:34:55;;;;;;;5.68;5.13;;;;;;;-144.47;100.00;61586.06;5011144;28;20025;-77
2022/08/18 11:37:33;;;;;;;6.13;5.63;;;;;;;-144.47;100.00;61586.06;5008864;28;20049;-77
2022/08/18 11:40:02;;;;;;;7.53;5.70;;;;;;;-144.47;100.00;61586.06;5011919;28;20382;-78
2022/08/18 11:42:34;;;;;;;7.03;6.45;;;;;;;-144.47;100.00;61586.06;5012182;28;20513;-77
2022/08/18 11:45:16;;;;;;;10.25;6.57;;;;;;;-144.47;100.00;61586.06;5012004;28;20417;-78
2022/08/18 11:48:03;;;;;;;6.78;5.38;;;;;;;-144.47;100.00;61586.06;5011686;28;20365;-78
2022/08/18 11:50:30;;;;;;;5.38;4.82;;;;;;;-144.47;100.00;61586.06;5011676;28;20030;-78